Time;durP1;ratioP1;P1;durP2;ratioP2;P2;SDS_P1;SDS_P2;PMS_P1;PMS_P2;Temp;Humidity;BMP_temperature;BMP_pressure;BME280_temperature;BME280_humidity;BME280_pressure;Samples;Min_cycle;Max_cycle;Signal;HPM_P1;HPM_P2
2021/04/10 00:00:56;;;;;;;15.25;6.18;;;8.20;94.20;;;;;;4997398;28;20018;-35
2021/04/10 00:03:21;;;;;;;13.45;5.70;;;8.20;94.30;;;;;;4986410;28;20018;-33
2021/04/10 00:05:47;;;;;;;16.55;6.00;;;8.20;94.30;;;;;;4995880;28;20026;-37
2021/04/10 00:08:13;;;;;;;15.00;5.72;;;8.10;94.40;;;;;;4987302;28;20030;-35
2021/04/10 00:10:39;;;;;;;17.10;6.22;;;8.10;94.50;;;;;;4993696;28;20030;-37
2021/04/10 00:13:05;;;;;;;14.95;5.20;;;8.10;94.60;;;;;;4989572;28;20022;-39
2021/04/10 00:15:31;;;;;;;12.27;4.75;;;8.00;94.60;;;;;;4990776;28;20021;-37
2021/04/10 00:17:57;;;;;;;14.02;5.38;;;8.00;94.60;;;;;;4992564;28;20125;-33
2021/04/10 00:20:24;;;;;;;16.05;5.35;;;7.90;94.60;;;;;;4987765;28;20018;-39
2021/04/10 00:22:50;;;;;;;14.52;5.15;;;7.90;94.70;;;;;;4994777;28;20125;-38
2021/04/10 00:25:16;;;;;;;15.88;5.28;;;7.80;94.70;;;;;;4987011;28;20031;-35
2021/04/10 00:27:42;;;;;;;12.77;5.35;;;7.80;94.80;;;;;;4996292;28;20031;-36
2021/04/10 00:30:10;;;;;;;15.77;5.15;;;7.80;94.80;;;;;;4986539;28;20038;-38
2021/04/10 00:32:36;;;;;;;16.88;4.65;;;7.80;94.80;;;;;;4996520;28;20086;-38
2021/04/10 00:35:02;;;;;;;14.68;4.55;;;7.80;94.80;;;;;;4989465;28;20457;-39
2021/04/10 00:37:27;;;;;;;17.33;4.80;;;7.80;94.80;;;;;;4992490;28;20052;-36
2021/04/10 00:39:53;;;;;;;11.35;4.63;;;7.80;94.80;;;;;;5004950;28;20482;-36
2021/04/10 00:42:19;;;;;;;11.25;4.65;;;7.70;94.70;;;;;;4992134;28;20122;-35
2021/04/10 00:44:44;;;;;;;14.70;4.60;;;7.70;94.80;;;;;;5004548;28;20048;-39
2021/04/10 00:47:10;;;;;;;13.50;4.35;;;7.70;94.70;;;;;;4994551;28;20022;-37
2021/04/10 00:49:35;;;;;;;15.07;4.55;;;7.70;94.70;;;;;;5002241;28;20037;-35
2021/04/10 00:52:02;;;;;;;11.23;4.47;;;7.70;94.70;;;;;;4996506;28;20116;-38
2021/04/10 00:54:28;;;;;;;11.80;4.10;;;7.70;94.70;;;;;;5000532;28;20064;-36
2021/04/10 00:56:54;;;;;;;15.80;4.70;;;7.60;94.70;;;;;;4998675;28;20145;-38
2021/04/10 00:59:19;;;;;;;11.50;3.97;;;7.60;94.70;;;;;;4997843;28;20683;-38
2021/04/10 01:01:45;;;;;;;15.20;4.00;;;7.60;94.60;;;;;;5001893;28;20037;-37
2021/04/10 01:04:11;;;;;;;14.35;3.60;;;7.60;94.60;;;;;;4994642;28;20084;-38
2021/04/10 01:06:36;;;;;;;16.13;4.90;;;7.60;94.70;;;;;;5003154;28;20042;-37
2021/04/10 01:09:02;;;;;;;8.20;3.72;;;7.50;94.70;;;;;;4993637;28;20449;-38
2021/04/10 01:11:34;;;;;;;13.35;4.18;;;7.50;94.80;;;;;;5002402;28;20792;-38
2021/04/10 01:14:04;;;;;;;10.48;3.95;;;7.40;94.70;;;;;;4995603;28;20035;-38
2021/04/10 01:16:38;;;;;;;11.32;4.15;;;7.40;94.80;;;;;;4984782;28;20058;-36
2021/04/10 01:19:17;;;;;;;13.38;4.88;;;7.40;94.80;;;;;;4994635;28;20030;-39
2021/04/10 01:21:52;;;;;;;10.32;3.47;;;7.40;94.80;;;;;;4985190;28;20101;-38
2021/04/10 01:24:40;;;;;;;7.18;3.33;;;7.40;94.70;;;;;;4989073;28;20024;-37
2021/04/10 01:27:38;;;;;;;8.55;3.10;;;7.50;94.70;;;;;;4986391;28;20045;-37
2021/04/10 01:30:13;;;;;;;10.43;3.40;;;7.50;94.60;;;;;;4994793;28;20536;-36
2021/04/10 01:33:11;;;;;;;11.90;3.95;;;7.50;94.60;;;;;;5002180;28;20041;-37
2021/04/10 01:35:45;;;;;;;10.75;3.97;;;7.50;94.70;;;;;;4986569;28;20422;-35
2021/04/10 01:38:21;;;;;;;11.93;4.05;;;7.40;94.70;;;;;;4992318;28;20469;-35
2021/04/10 01:40:51;;;;;;;11.35;3.70;;;7.50;94.70;;;;;;4994566;28;20027;-36
2021/04/10 01:43:17;;;;;;;9.23;3.47;;;7.50;94.70;;;;;;4992255;28;20121;-38
2021/04/10 01:45:43;;;;;;;11.00;4.25;;;7.40;94.70;;;;;;4996302;28;20550;-38
2021/04/10 01:48:11;;;;;;;9.77;3.83;;;7.50;94.70;;;;;;4989915;28;20029;-37
2021/04/10 01:50:37;;;;;;;14.57;4.45;;;7.40;94.70;;;;;;4998943;28;20185;-38
2021/04/10 01:53:08;;;;;;;14.70;4.65;;;7.40;94.70;;;;;;4988712;28;20054;-35
2021/04/10 01:55:35;;;;;;;15.23;5.40;;;7.50;94.80;;;;;;4999124;28;20337;-37
2021/04/10 01:58:01;;;;;;;8.27;3.95;;;7.40;94.70;;;;;;4989500;28;20034;-35
2021/04/10 02:00:30;;;;;;;11.63;4.55;;;7.40;94.70;;;;;;4998790;28;20105;-38
2021/04/10 02:02:56;;;;;;;17.63;5.78;;;7.40;94.80;;;;;;4988112;28;20045;-36
2021/04/10 02:05:23;;;;;;;11.10;4.22;;;7.40;94.80;;;;;;4999825;28;20034;-38
2021/04/10 02:07:50;;;;;;;11.95;4.88;;;7.40;94.90;;;;;;4987648;28;20030;-38
2021/04/10 02:10:23;;;;;;;14.43;4.60;;;7.30;94.80;;;;;;4999949;28;20022;-38
2021/04/10 02:12:51;;;;;;;12.55;4.57;;;7.30;95.00;;;;;;4987651;28;20034;-39
2021/04/10 02:15:17;;;;;;;16.60;5.20;;;7.30;95.00;;;;;;4999583;28;20117;-37
2021/04/10 02:17:43;;;;;;;12.18;4.68;;;7.20;95.10;;;;;;4988329;28;20088;-40
2021/04/10 02:20:11;;;;;;;12.27;4.45;;;7.20;95.20;;;;;;4996622;28;20073;-37
2021/04/10 02:22:38;;;;;;;15.75;4.75;;;7.20;95.20;;;;;;4990375;28;20041;-38
2021/04/10 02:25:06;;;;;;;10.05;4.40;;;7.20;95.20;;;;;;4994471;28;20475;-40
2021/04/10 02:27:31;;;;;;;9.13;4.05;;;7.10;95.20;;;;;;4992166;28;20482;-36
2021/04/10 02:29:58;;;;;;;8.88;4.05;;;7.10;95.30;;;;;;4992174;28;20021;-39
2021/04/10 02:32:30;;;;;;;7.68;4.22;;;7.10;95.20;;;;;;4994484;28;20046;-38
2021/04/10 02:35:18;;;;;;;12.48;4.50;;;7.10;95.30;;;;;;4988557;28;20058;-38
2021/04/10 02:37:44;;;;;;;11.00;5.13;;;7.00;95.30;;;;;;4987760;28;20058;-41
2021/04/10 02:40:15;;;;;;;10.18;4.43;;;7.00;95.40;;;;;;4994403;28;20034;-38
2021/04/10 02:42:46;;;;;;;14.75;4.80;;;7.00;95.40;;;;;;4998591;28;20421;-36
2021/04/10 02:45:14;;;;;;;13.30;4.95;;;7.00;95.40;;;;;;5003635;28;20060;-36
2021/04/10 02:47:42;;;;;;;13.57;4.78;;;7.00;95.60;;;;;;4996676;28;20018;-39
2021/04/10 02:50:10;;;;;;;11.75;5.28;;;6.90;95.50;;;;;;5005666;28;20026;-38
2021/04/10 02:52:41;;;;;;;10.18;4.47;;;6.90;95.60;;;;;;4995015;28;20065;-38
2021/04/10 02:55:13;;;;;;;16.88;5.85;;;6.90;95.60;;;;;;5004602;28;20072;-40
2021/04/10 02:57:40;;;;;;;11.57;4.68;;;6.90;95.70;;;;;;4995738;28;20119;-39
2021/04/10 03:00:07;;;;;;;12.60;5.68;;;6.90;95.80;;;;;;5004890;28;20030;-39
2021/04/10 03:02:36;;;;;;;9.07;5.25;;;6.90;95.70;;;;;;4996330;28;20022;-38
2021/04/10 03:05:05;;;;;;;14.00;5.63;;;6.80;95.80;;;;;;4987158;28;20030;-38
2021/04/10 03:07:34;;;;;;;13.70;5.25;;;6.80;95.90;;;;;;4998879;28;20026;-39
2021/04/10 03:10:01;;;;;;;16.90;4.97;;;6.80;95.90;;;;;;4986467;28;20034;-38
2021/04/10 03:12:26;;;;;;;12.70;5.40;;;6.80;96.00;;;;;;4998778;28;20121;-37
2021/04/10 03:14:52;;;;;;;16.88;6.32;;;6.70;96.20;;;;;;4986607;28;20113;-38
2021/04/10 03:17:21;;;;;;;15.27;5.55;;;6.70;96.20;;;;;;4997395;28;20117;-34
2021/04/10 03:19:49;;;;;;;12.52;6.03;;;6.70;96.20;;;;;;4987071;28;20098;-40
2021/04/10 03:22:15;;;;;;;11.60;5.68;;;6.70;96.30;;;;;;4996134;28;20034;-38
2021/04/10 03:24:41;;;;;;;17.02;5.80;;;6.70;96.30;;;;;;4970710;28;20026;-35
2021/04/10 03:27:07;;;;;;;11.75;6.22;;;6.60;96.40;;;;;;4993106;28;20038;-38
2021/04/10 03:29:35;;;;;;;16.08;6.07;;;6.70;96.40;;;;;;4991633;28;20053;-38
2021/04/10 03:32:01;;;;;;;12.02;5.30;;;6.70;96.40;;;;;;4990222;28;20346;-38
2021/04/10 03:34:28;;;;;;;9.73;4.72;;;6.60;96.40;;;;;;4994271;28;20031;-36
2021/04/10 03:36:54;;;;;;;11.68;5.53;;;6.60;96.50;;;;;;4999759;28;20029;-38
2021/04/10 03:39:19;;;;;;;12.63;5.10;;;6.60;96.40;;;;;;4996249;28;20361;-37
2021/04/10 03:41:45;;;;;;;12.40;5.82;;;6.60;96.50;;;;;;5004083;28;20086;-37
2021/04/10 03:44:11;;;;;;;10.75;4.95;;;6.60;96.50;;;;;;4994250;28;20548;-38
2021/04/10 03:46:37;;;;;;;10.40;5.50;;;6.50;96.50;;;;;;5004722;28;20465;-36
2021/04/10 03:49:04;;;;;;;14.00;5.97;;;6.60;96.50;;;;;;4994132;28;20032;-35
2021/04/10 03:51:30;;;;;;;15.93;5.68;;;6.50;96.50;;;;;;5005049;28;20525;-40
2021/04/10 03:53:55;;;;;;;11.68;4.90;;;6.60;96.50;;;;;;4992868;28;20077;-37
2021/04/10 03:56:21;;;;;;;14.40;5.53;;;6.60;96.50;;;;;;5004942;28;20026;-38
2021/04/10 03:58:47;;;;;;;9.73;5.00;;;6.60;96.50;;;;;;4993083;28;20041;-38
2021/04/10 04:01:13;;;;;;;13.88;5.65;;;6.60;96.40;;;;;;5005546;28;20042;-35
2021/04/10 04:03:38;;;;;;;13.40;5.72;;;6.60;96.40;;;;;;4996030;28;20057;-38
2021/04/10 04:06:04;;;;;;;11.48;5.95;;;6.60;96.40;;;;;;5002281;28;20040;-38
2021/04/10 04:08:29;;;;;;;10.52;5.43;;;6.60;96.40;;;;;;4998101;28;20034;-37
2021/04/10 04:10:55;;;;;;;13.65;5.53;;;6.60;96.40;;;;;;4999937;28;20034;-38
2021/04/10 04:13:20;;;;;;;14.07;5.95;;;6.60;96.50;;;;;;5000896;28;20466;-37
2021/04/10 04:15:46;;;;;;;14.30;6.05;;;6.60;96.50;;;;;;4997237;28;20083;-35
2021/04/10 04:18:11;;;;;;;14.07;6.57;;;6.60;96.50;;;;;;5003936;28;20075;-36
2021/04/10 04:20:40;;;;;;;15.70;6.47;;;6.60;96.50;;;;;;4994267;28;20117;-38
2021/04/10 04:23:08;;;;;;;10.10;5.55;;;6.60;96.50;;;;;;5003303;28;20618;-37
2021/04/10 04:25:33;;;;;;;14.50;6.03;;;6.60;96.40;;;;;;4993868;28;20112;-36
2021/04/10 04:28:00;;;;;;;16.73;5.72;;;6.60;96.40;;;;;;5004352;28;20464;-37
2021/04/10 04:30:26;;;;;;;11.18;5.50;;;6.60;96.40;;;;;;4993863;28;20042;-39
2021/04/10 04:32:52;;;;;;;11.50;5.45;;;6.60;96.40;;;;;;5005584;28;20045;-38
2021/04/10 04:35:18;;;;;;;14.50;6.50;;;6.60;96.40;;;;;;4993361;28;20034;-38
2021/04/10 04:37:44;;;;;;;16.58;6.35;;;6.60;96.30;;;;;;5005036;28;20143;-35
2021/04/10 04:40:10;;;;;;;16.63;7.07;;;6.60;96.40;;;;;;4992260;28;20056;-38
2021/04/10 04:42:35;;;;;;;17.13;6.90;;;6.60;96.40;;;;;;5004799;28;20366;-35
2021/04/10 04:45:02;;;;;;;11.63;6.28;;;6.60;96.40;;;;;;4995141;28;20029;-38
2021/04/10 04:47:28;;;;;;;13.32;6.05;;;6.60;96.40;;;;;;5002194;28;20260;-36
2021/04/10 04:49:53;;;;;;;14.10;5.50;;;6.60;96.40;;;;;;4997126;28;20620;-37
2021/04/10 04:52:19;;;;;;;15.27;6.68;;;6.60;96.30;;;;;;4999388;28;20049;-38
2021/04/10 04:54:44;;;;;;;15.23;7.10;;;6.60;96.30;;;;;;4999480;28;20103;-36
2021/04/10 04:57:10;;;;;;;15.75;6.72;;;6.60;96.30;;;;;;4997029;28;20064;-37
2021/04/10 04:59:35;;;;;;;14.20;6.53;;;6.60;96.50;;;;;;5002549;28;20067;-37
2021/04/10 05:02:01;;;;;;;13.32;6.25;;;6.60;96.20;;;;;;4993738;28;20033;-38
2021/04/10 05:04:27;;;;;;;14.07;6.63;;;6.60;96.20;;;;;;5003402;28;20022;-36
2021/04/10 05:06:52;;;;;;;11.68;5.45;;;6.60;96.20;;;;;;4994239;28;20030;-39
2021/04/10 05:09:18;;;;;;;17.88;6.25;;;6.60;96.20;;;;;;5008117;28;20034;-38
2021/04/10 05:11:43;;;;;;;13.90;6.50;;;6.60;96.10;;;;;;4996422;28;20093;-37
2021/04/10 05:14:15;;;;;;;17.13;6.10;;;6.60;96.10;;;;;;5008810;28;20029;-37
2021/04/10 05:16:40;;;;;;;12.50;5.75;;;6.60;96.10;;;;;;4995698;28;20085;-36
2021/04/10 05:19:06;;;;;;;10.13;5.70;;;6.60;96.00;;;;;;5007914;28;20030;-37
2021/04/10 05:21:31;;;;;;;15.98;6.70;;;6.70;96.10;;;;;;5003652;28;20026;-36
2021/04/10 05:23:57;;;;;;;16.33;6.07;;;6.70;96.00;;;;;;4988468;28;20014;-38
2021/04/10 05:26:22;;;;;;;14.80;6.75;;;6.70;96.00;;;;;;4997952;28;20049;-39
2021/04/10 05:28:48;;;;;;;12.00;5.88;;;6.70;96.00;;;;;;4991015;28;20026;-39
2021/04/10 05:31:14;;;;;;;9.93;5.30;;;6.70;96.00;;;;;;4995128;28;20026;-38
2021/04/10 05:33:39;;;;;;;16.58;5.95;;;6.60;96.00;;;;;;4993671;28;20450;-38
2021/04/10 05:36:05;;;;;;;15.07;6.43;;;6.60;96.00;;;;;;4992791;28;20034;-37
2021/04/10 05:38:31;;;;;;;16.50;6.72;;;6.70;96.00;;;;;;4999643;28;20064;-38
2021/04/10 05:40:56;;;;;;;12.68;6.00;;;6.70;96.00;;;;;;5005953;28;20065;-37
2021/04/10 05:43:25;;;;;;;14.52;5.90;;;6.70;96.00;;;;;;4997629;28;20029;-41
2021/04/10 05:45:50;;;;;;;13.75;5.93;;;6.70;95.90;;;;;;5006387;28;20064;-37
2021/04/10 05:48:16;;;;;;;13.13;6.00;;;6.70;95.90;;;;;;4996815;28;20353;-38
2021/04/10 05:50:41;;;;;;;18.63;5.13;;;6.70;95.90;;;;;;5006842;28;20519;-37
2021/04/10 05:53:10;;;;;;;16.95;6.47;;;6.70;95.70;;;;;;4995847;28;20041;-37
2021/04/10 05:55:35;;;;;;;9.45;5.60;;;6.70;95.70;;;;;;5007692;28;20079;-37
2021/04/10 05:58:01;;;;;;;18.83;5.38;;;6.80;95.60;;;;;;4994796;28;20034;-38
2021/04/10 06:00:27;;;;;;;12.10;5.13;;;6.80;95.50;;;;;;5007742;28;20026;-37
2021/04/10 06:02:54;;;;;;;17.50;5.45;;;6.90;95.30;;;;;;4995453;28;20501;-39
2021/04/10 06:05:21;;;;;;;15.13;5.25;;;6.80;95.20;;;;;;5007452;28;20056;-37
2021/04/10 06:07:47;;;;;;;15.07;5.70;;;6.90;95.20;;;;;;4997594;28;20026;-33
2021/04/10 06:10:20;;;;;;;14.38;6.03;;;6.90;95.20;;;;;;5005063;28;20411;-39
2021/04/10 06:12:47;;;;;;;17.05;5.68;;;6.90;95.10;;;;;;4999278;28;20705;-36
2021/04/10 06:15:16;;;;;;;13.95;5.07;;;6.90;94.90;;;;;;4987440;28;20015;-37
2021/04/10 06:17:42;;;;;;;15.73;5.97;;;7.00;94.80;;;;;;4991587;28;20038;-36
2021/04/10 06:20:09;;;;;;;11.43;5.05;;;7.00;94.80;;;;;;4999229;28;20828;-39
2021/04/10 06:22:35;;;;;;;13.20;4.93;;;7.00;94.70;;;;;;5003429;28;20025;-37
2021/04/10 06:25:01;;;;;;;17.33;6.38;;;7.00;94.70;;;;;;4998740;28;20725;-37
2021/04/10 06:27:26;;;;;;;17.45;5.88;;;7.10;94.70;;;;;;5005687;28;20131;-38
2021/04/10 06:29:55;;;;;;;17.95;6.88;;;7.10;94.60;;;;;;4996040;28;20192;-39
2021/04/10 06:32:20;;;;;;;12.82;5.75;;;7.10;94.50;;;;;;5005375;28;20111;-38
2021/04/10 06:34:46;;;;;;;12.85;5.50;;;7.10;94.60;;;;;;4995762;28;20014;-39
2021/04/10 06:37:14;;;;;;;15.75;6.00;;;7.20;94.60;;;;;;4990181;28;20022;-33
2021/04/10 06:39:40;;;;;;;13.85;5.75;;;7.20;94.50;;;;;;4995194;28;20021;-38
2021/04/10 06:42:06;;;;;;;10.95;4.80;;;7.30;94.40;;;;;;5006874;28;20026;-37
2021/04/10 06:44:32;;;;;;;12.35;5.30;;;7.30;94.30;;;;;;4994310;28;20027;-38
2021/04/10 06:47:05;;;;;;;15.27;6.25;;;7.30;94.20;;;;;;5007049;28;20454;-35
2021/04/10 06:49:31;;;;;;;18.33;6.57;;;7.30;94.20;;;;;;4994772;28;20060;-38
2021/04/10 06:51:58;;;;;;;16.50;6.13;;;7.30;94.10;;;;;;4987070;28;20050;-38
2021/04/10 06:54:33;;;;;;;10.98;5.20;;;7.30;94.10;;;;;;4996845;28;20112;-36
2021/04/10 06:57:10;;;;;;;16.38;6.00;;;7.30;94.10;;;;;;4988421;28;20038;-38
2021/04/10 06:59:55;;;;;;;13.30;5.57;;;7.40;94.10;;;;;;4997147;28;20484;-38
2021/04/10 07:02:22;;;;;;;16.08;6.93;;;7.40;94.00;;;;;;4995418;28;20041;-34
2021/04/10 07:04:48;;;;;;;12.05;5.50;;;7.50;93.90;;;;;;4999976;28;20018;-38
2021/04/10 07:07:14;;;;;;;12.20;5.65;;;7.50;93.90;;;;;;4985252;28;20117;-39
2021/04/10 07:09:40;;;;;;;12.80;5.38;;;7.50;93.80;;;;;;4989341;28;20729;-39
2021/04/10 07:12:08;;;;;;;12.45;5.53;;;7.60;93.70;;;;;;5001401;28;20046;-40
2021/04/10 07:14:35;;;;;;;9.88;4.30;;;7.60;93.70;;;;;;4999887;28;20030;-39
2021/04/10 07:17:00;;;;;;;9.95;5.00;;;7.60;93.60;;;;;;4998463;28;20418;-40
2021/04/10 07:19:27;;;;;;;15.98;5.40;;;7.70;93.60;;;;;;5002179;28;20109;-37
2021/04/10 07:22:03;;;;;;;15.95;4.93;;;7.70;93.50;;;;;;4996564;28;20034;-38
2021/04/10 07:24:35;;;;;;;11.50;5.53;;;7.70;93.40;;;;;;5003087;28;20172;-38
2021/04/10 07:27:01;;;;;;;11.40;5.10;;;7.80;93.20;;;;;;4995820;28;20098;-37
2021/04/10 07:29:30;;;;;;;12.15;5.18;;;7.80;93.10;;;;;;5003932;28;20081;-37
2021/04/10 07:31:57;;;;;;;12.35;4.30;;;7.80;93.00;;;;;;4984152;28;20042;-35
2021/04/10 07:34:23;;;;;;;13.98;5.15;;;7.80;92.90;;;;;;4987329;28;20022;-38
2021/04/10 07:37:02;;;;;;;8.50;4.18;;;7.80;92.90;;;;;;4988892;28;20045;-34
2021/04/10 07:39:28;;;;;;;9.30;4.15;;;7.80;92.90;;;;;;4986255;28;20010;-37
2021/04/10 07:42:04;;;;;;;11.35;3.92;;;7.90;92.90;;;;;;4994306;28;20100;-37
2021/04/10 07:44:39;;;;;;;11.68;4.32;;;8.00;92.90;;;;;;5004970;28;20036;-38
2021/04/10 07:47:06;;;;;;;11.65;5.20;;;8.10;92.90;;;;;;4996168;28;20217;-39
2021/04/10 07:49:33;;;;;;;9.93;4.32;;;8.20;92.80;;;;;;4985637;28;20030;-39
2021/04/10 07:52:07;;;;;;;9.48;3.95;;;8.30;92.50;;;;;;4995348;28;20532;-38
2021/04/10 07:54:33;;;;;;;10.55;4.28;;;8.40;92.30;;;;;;4985739;28;20592;-39
2021/04/10 07:57:04;;;;;;;13.18;4.18;;;8.50;92.10;;;;;;4997317;28;20038;-39
2021/04/10 07:59:50;;;;;;;9.15;3.60;;;8.50;92.00;;;;;;4985211;28;20030;-37
2021/04/10 08:02:17;;;;;;;12.80;3.95;;;8.60;91.70;;;;;;4997732;28;20049;-38
2021/04/10 08:05:06;;;;;;;12.77;4.10;;;8.60;91.80;;;;;;4985508;28;20041;-38
2021/04/10 08:07:34;;;;;;;14.02;4.10;;;8.70;91.40;;;;;;4996863;28;20378;-38
2021/04/10 08:10:04;;;;;;;13.13;4.43;;;8.60;91.50;;;;;;4985725;28;20042;-35
2021/04/10 08:12:32;;;;;;;11.15;4.03;;;8.70;91.20;;;;;;4996021;28;20034;-39
2021/04/10 08:14:58;;;;;;;9.55;3.38;;;8.70;91.10;;;;;;4985396;28;20113;-38
2021/04/10 08:17:39;;;;;;;12.18;3.95;;;8.70;91.20;;;;;;4996871;28;20036;-37
2021/04/10 08:20:18;;;;;;;11.50;4.30;;;8.70;91.20;;;;;;4984819;28;20092;-38
2021/04/10 08:22:44;;;;;;;10.70;4.20;;;8.80;90.90;;;;;;4996633;28;20339;-39
2021/04/10 08:25:11;;;;;;;8.52;3.65;;;8.80;90.90;;;;;;4984922;28;20511;-38
2021/04/10 08:27:39;;;;;;;7.43;3.15;;;8.70;91.00;;;;;;4994963;28;20018;-37
2021/04/10 08:30:06;;;;;;;12.68;3.90;;;8.80;91.00;;;;;;4986078;28;20450;-38
2021/04/10 08:32:31;;;;;;;9.80;3.50;;;8.90;90.70;;;;;;4992787;28;20030;-39
2021/04/10 08:34:57;;;;;;;10.02;3.60;;;9.00;90.60;;;;;;4988503;28;20041;-36
2021/04/10 08:37:24;;;;;;;9.55;3.40;;;9.00;90.50;;;;;;4995696;28;20108;-38
2021/04/10 08:39:51;;;;;;;9.68;3.20;;;9.10;90.90;;;;;;4998511;28;20022;-39
2021/04/10 08:42:17;;;;;;;7.20;2.70;;;9.20;90.70;;;;;;5000259;28;20036;-40
2021/04/10 08:44:46;;;;;;;14.20;3.55;;;9.30;90.70;;;;;;4996421;28;20126;-40
2021/04/10 08:47:12;;;;;;;14.32;3.75;;;9.40;90.20;;;;;;5002104;28;20045;-36
2021/04/10 08:49:42;;;;;;;7.63;3.60;;;9.50;89.80;;;;;;4994324;28;20026;-36
2021/04/10 08:52:12;;;;;;;9.75;3.33;;;9.50;89.60;;;;;;5002495;28;20046;-37
2021/04/10 08:54:41;;;;;;;11.77;3.67;;;9.60;90.10;;;;;;4993143;28;20057;-36
2021/04/10 08:57:09;;;;;;;12.23;4.20;;;9.60;89.10;;;;;;5002877;28;20116;-33
2021/04/10 08:59:46;;;;;;;12.00;3.72;;;9.70;89.00;;;;;;4993314;28;20018;-37
2021/04/10 09:02:16;;;;;;;13.25;4.30;;;9.80;88.40;;;;;;5002390;28;20531;-38
2021/04/10 09:04:59;;;;;;;9.52;3.80;;;9.90;88.20;;;;;;4995923;28;20109;-34
2021/04/10 09:07:43;;;;;;;10.15;3.53;;;9.90;87.70;;;;;;4985743;28;20061;-37
2021/04/10 09:10:08;;;;;;;13.43;3.53;;;9.90;87.40;;;;;;4995635;28;20034;-38
2021/04/10 09:12:34;;;;;;;10.48;3.60;;;10.00;86.90;;;;;;4985865;28;20039;-37
2021/04/10 09:15:08;;;;;;;10.90;3.42;;;10.00;87.10;;;;;;4994770;28;20061;-37
2021/04/10 09:18:07;;;;;;;9.25;3.72;;;10.10;87.70;;;;;;4984297;28;20358;-36
2021/04/10 09:20:45;;;;;;;13.43;3.22;;;10.20;87.40;;;;;;4967482;28;20117;-38
2021/04/10 09:23:22;;;;;;;8.82;3.45;;;10.30;86.60;;;;;;5001373;28;20040;-39
2021/04/10 09:26:10;;;;;;;10.40;4.18;;;10.30;85.80;;;;;;4993807;28;20037;-36
2021/04/10 09:29:05;;;;;;;11.70;3.90;;;10.30;85.80;;;;;;5002257;28;20029;-39
2021/04/10 09:31:49;;;;;;;12.75;3.65;;;10.30;86.20;;;;;;4998134;28;20160;-39
2021/04/10 09:34:42;;;;;;;13.05;3.90;;;10.30;86.50;;;;;;4999136;28;20330;-36
2021/04/10 09:37:08;;;;;;;10.80;3.40;;;10.30;86.50;;;;;;4987060;28;20034;-39
2021/04/10 09:39:51;;;;;;;13.50;4.40;;;10.20;85.80;;;;;;4992400;28;20385;-39
2021/04/10 09:42:55;;;;;;;12.10;3.25;;;10.20;85.70;;;;;;4988229;28;20049;-40
2021/04/10 09:45:30;;;;;;;9.00;3.45;;;10.10;85.70;;;;;;4996569;28;20088;-37
2021/04/10 09:50:31;;;;;;;13.18;3.95;;;9.90;86.40;;;;;;4995244;28;20033;-38
2021/04/10 09:52:59;;;;;;;11.82;3.40;;;9.90;86.80;;;;;;4985139;28;20047;-38
2021/04/10 09:55:29;;;;;;;11.10;3.92;;;9.80;86.90;;;;;;4997432;28;20040;-35
2021/04/10 09:57:59;;;;;;;15.05;4.65;;;9.80;87.30;;;;;;5004624;28;20030;-38
2021/04/10 10:00:33;;;;;;;10.75;4.65;;;9.80;87.30;;;;;;5003694;28;20041;-37
2021/04/10 10:03:00;;;;;;;13.02;4.18;;;9.70;87.60;;;;;;4990575;28;20060;-36
2021/04/10 10:05:37;;;;;;;10.43;4.65;;;9.70;88.00;;;;;;4994725;28;20489;-35
2021/04/10 10:08:07;;;;;;;13.75;4.20;;;9.70;88.10;;;;;;4992164;28;20049;-37
2021/04/10 10:10:53;;;;;;;15.75;4.90;;;9.60;88.00;;;;;;4994593;28;20026;-36
2021/04/10 10:13:21;;;;;;;16.80;5.63;;;9.70;88.40;;;;;;4991416;28;20062;-36
2021/04/10 10:15:49;;;;;;;11.38;4.32;;;9.70;88.10;;;;;;4994925;28;20120;-37
2021/04/10 10:18:23;;;;;;;11.10;4.32;;;9.70;87.80;;;;;;5003197;28;20045;-37
2021/04/10 10:21:25;;;;;;;11.13;4.50;;;9.60;87.70;;;;;;5001418;28;20042;-36
2021/04/10 10:23:55;;;;;;;11.07;4.53;;;9.60;87.90;;;;;;5000719;28;20038;-35
2021/04/10 10:26:43;;;;;;;11.45;4.97;;;9.60;88.20;;;;;;4998906;28;20021;-37
2021/04/10 10:29:15;;;;;;;9.85;4.13;;;9.60;88.50;;;;;;5007258;28;20045;-36
2021/04/10 10:31:46;;;;;;;9.23;4.35;;;9.70;88.60;;;;;;4997466;28;20119;-36
2021/04/10 10:34:15;;;;;;;16.85;5.45;;;9.70;89.10;;;;;;5006004;28;20025;-38
2021/04/10 10:36:42;;;;;;;18.05;6.03;;;9.80;89.60;;;;;;4995906;28;20056;-37
2021/04/10 10:39:29;;;;;;;12.18;4.63;;;9.80;89.10;;;;;;5005792;28;20084;-38
2021/04/10 10:41:55;;;;;;;14.23;5.22;;;9.80;89.10;;;;;;5001141;28;20018;-37
2021/04/10 10:44:21;;;;;;;9.57;4.00;;;9.70;89.00;;;;;;4991116;28;20038;-38
2021/04/10 10:46:58;;;;;;;10.65;4.57;;;9.70;89.30;;;;;;4992834;28;20113;-37
2021/04/10 10:49:24;;;;;;;12.95;4.28;;;9.70;89.90;;;;;;4991546;28;20398;-37
2021/04/10 10:51:49;;;;;;;10.38;4.97;;;9.60;89.90;;;;;;4992615;28;20895;-38
2021/04/10 10:54:15;;;;;;;13.55;5.28;;;9.60;90.20;;;;;;4994181;28;20080;-37
2021/04/10 10:56:40;;;;;;;12.55;4.80;;;9.60;90.20;;;;;;4989567;28;20030;-38
2021/04/10 10:59:08;;;;;;;17.30;5.03;;;9.60;90.20;;;;;;4996682;28;20457;-38
2021/04/10 11:01:41;;;;;;;15.35;5.65;;;9.60;90.70;;;;;;4988163;28;20041;-36
2021/04/10 11:04:20;;;;;;;13.70;6.05;;;9.60;91.00;;;;;;4996443;28;20029;-39
2021/04/10 11:06:49;;;;;;;15.32;6.13;;;9.60;91.30;;;;;;5004944;28;20052;-37
2021/04/10 11:09:20;;;;;;;12.15;5.57;;;9.50;91.40;;;;;;4995517;28;20040;-37
2021/04/10 11:11:48;;;;;;;14.60;5.07;;;9.50;91.80;;;;;;5005129;28;20129;-39
2021/04/10 11:14:21;;;;;;;12.20;5.38;;;9.40;91.80;;;;;;4994301;28;20053;-38
2021/04/10 11:16:49;;;;;;;13.85;6.35;;;9.40;92.00;;;;;;5004679;28;20161;-38
2021/04/10 11:19:30;;;;;;;15.15;6.28;;;9.50;91.90;;;;;;4993425;28;20069;-39
2021/04/10 11:21:57;;;;;;;13.63;6.13;;;9.60;91.60;;;;;;5004284;28;20041;-37
2021/04/10 11:24:49;;;;;;;14.35;6.38;;;9.60;91.40;;;;;;4995027;28;20429;-38
2021/04/10 11:27:22;;;;;;;13.20;5.50;;;9.60;91.50;;;;;;5005147;28;20028;-39
2021/04/10 11:30:03;;;;;;;16.58;6.80;;;9.70;91.70;;;;;;4994547;28;20356;-39
2021/04/10 11:32:37;;;;;;;14.05;6.85;;;9.70;91.70;;;;;;5004335;28;20046;-38
2021/04/10 11:35:14;;;;;;;13.82;7.13;;;9.70;91.50;;;;;;4995171;28;20358;-38
2021/04/10 11:37:51;;;;;;;13.23;7.18;;;9.60;91.60;;;;;;4990431;28;20115;-38
2021/04/10 11:40:16;;;;;;;13.90;6.82;;;9.60;91.80;;;;;;4995675;28;20048;-40
2021/04/10 11:42:48;;;;;;;13.15;7.05;;;9.60;91.70;;;;;;5003883;28;20458;-38
2021/04/10 11:45:27;;;;;;;16.23;7.95;;;9.60;92.00;;;;;;4997527;28;20471;-38
2021/04/10 11:48:14;;;;;;;12.57;7.38;;;9.50;92.30;;;;;;4987767;28;20022;-39
2021/04/10 11:50:42;;;;;;;14.65;8.25;;;9.40;92.40;;;;;;4994802;28;20087;-38
2021/04/10 11:53:16;;;;;;;18.80;8.45;;;9.40;92.70;;;;;;4989630;28;20389;-39
2021/04/10 11:55:42;;;;;;;21.10;10.50;;;9.40;92.80;;;;;;5003404;28;20096;-37
2021/04/10 11:58:07;;;;;;;19.67;11.45;;;9.40;92.70;;;;;;5003791;28;20465;-39
2021/04/10 12:00:33;;;;;;;18.13;11.68;;;9.40;92.90;;;;;;4998056;28;20037;-39
2021/04/10 12:03:11;;;;;;;21.13;12.93;;;9.40;92.70;;;;;;5005395;28;20057;-38
2021/04/10 12:05:43;;;;;;;24.15;14.05;;;9.40;92.90;;;;;;4996624;28;20023;-39
2021/04/10 12:08:25;;;;;;;22.58;14.40;;;9.40;93.00;;;;;;4985996;28;20034;-36
2021/04/10 12:10:55;;;;;;;24.58;16.42;;;9.40;93.10;;;;;;4993938;28;20041;-39
2021/04/10 12:13:22;;;;;;;28.20;18.83;;;9.40;92.90;;;;;;5006171;28;20438;-38
2021/04/10 12:15:53;;;;;;;27.10;18.17;;;9.40;93.10;;;;;;4992967;28;20358;-40
2021/04/10 12:18:20;;;;;;;25.38;17.90;;;9.30;93.00;;;;;;5004702;28;20026;-40
2021/04/10 12:20:58;;;;;;;24.75;16.90;;;9.20;93.30;;;;;;4993130;28;20018;-39
2021/04/10 12:23:23;;;;;;;31.17;18.88;;;9.20;93.60;;;;;;5005818;28;20045;-38
2021/04/10 12:25:50;;;;;;;27.67;18.83;;;9.10;94.00;;;;;;4992669;28;20027;-38
2021/04/10 12:28:20;;;;;;;28.67;20.00;;;9.10;94.00;;;;;;5005843;28;20445;-36
2021/04/10 12:30:46;;;;;;;29.05;21.52;;;9.20;94.30;;;;;;4994024;28;20030;-39
2021/04/10 12:33:11;;;;;;;30.63;18.80;;;9.20;94.40;;;;;;5003758;28;20502;-38
2021/04/10 12:35:37;;;;;;;31.27;21.23;;;9.20;94.30;;;;;;4996685;28;20029;-39
2021/04/10 12:38:03;;;;;;;36.05;22.27;;;9.20;94.40;;;;;;5005384;28;20393;-34
2021/04/10 12:40:29;;;;;;;33.40;21.75;;;9.10;94.30;;;;;;4999122;28;20121;-39
2021/04/10 12:42:55;;;;;;;31.08;21.27;;;9.10;94.80;;;;;;4998792;28;20216;-37
2021/04/10 12:45:20;;;;;;;28.75;20.75;;;9.00;94.70;;;;;;5001595;28;20105;-39
2021/04/10 12:47:49;;;;;;;32.13;22.35;;;9.00;94.60;;;;;;4995888;28;20025;-39
2021/04/10 12:50:24;;;;;;;38.00;23.50;;;8.90;94.80;;;;;;5003927;28;20026;-38
2021/04/10 12:52:50;;;;;;;36.20;22.88;;;8.80;95.40;;;;;;4994418;28;20600;-39
2021/04/10 12:55:16;;;;;;;26.05;20.02;;;8.70;95.40;;;;;;5002468;28;20014;-37
2021/04/10 12:57:42;;;;;;;27.25;19.75;;;8.70;95.70;;;;;;4996057;28;20042;-39
2021/04/10 13:00:09;;;;;;;29.77;20.58;;;8.70;95.80;;;;;;4985133;28;20398;-38